Tungsten, Nevada
Current Conditions -  °F | °C
As of 4:56 AM on Sunday 21 Dec 2014 (Local Time) from KWMC Reporting Station
Overcast Overcast  
Wind Chill: 43°   Ceiling: 5500
Heat Index: 48°   Visibility: 10mi
Dew Point: 38°   Wind: 10mph
Humidity: 68%   Direction: 230°SW
Pressure: 30.06"   Gusts: NA
Location:  40.601°N, 117.984°W
Report Text: KWMC 211256Z AUTO 23009KT 10SM OVC055 09/03 A3006 RMK AO2 SLP174 T00890033
Loading
Personal Weather Stations






























Interactive Weather Map New forecast layout! Learn more

10-Day Weather Forecast

Advertisements
Track Severe Weather on mobile